Talmadge, Maine
Current Conditions -  °F | °C
As of 3:02 PM on Saturday 25 Oct 2014 (Local Time) from KHUL Reporting Station
Overcast Overcast  
Wind Chill: 45°   Ceiling: 1600
Heat Index: 45°   Visibility: 10mi
Dew Point: 41°   Wind: 3mph
Humidity: 86%   Direction: 300°WNW
Pressure: 29.56"   Gusts: NA
Location:  45.3759°N, 67.6018°W
Report Text: KHUL 251902Z AUTO 30003KT 10SM OVC016 07/05 A2956 RMK AO2 T00720050
Loading
Personal Weather Stations






























Interactive Weather Map
Tropical Storm Tracking
New forecast layout! Learn more

10-Day Weather Forecast

Advertisements
Track Severe Weather on mobile